Página principal
METAR-TAF:

METAR-TAF

Aeroportos :

Alice Springs, Austrália

latitude: 23-48S, longitude: 133-53E, altura: 545 m

Observação actual do tempo

O boletim foi feito há 34 minutos, às 22:30 UTC
Vento 5 kt de sudeste, variando entre este e sul
Temperatura 26°C
Humidade 9%
Pressão 1019 hPa
Visibilidade 10 km ou mais

METAR: YBAS 152230Z AUTO 14005KT 080V170 9999 // NCD 26/M09 Q1019 RF00.0/000.0

Hora: 08:34 (23:04 UTC)

Previsão

O boletim foi feito há 5 horas e 35 minutos, às 17:29 UTC
Previsão válida de 15 às 18 UTC a 16 às 18 UTC
Vento 5 kt de oes-noroeste
Visibilidade 10 km ou mais
sem nuvens abaixo de 1500 metros e sem cumulonimbus
A partir de 15 às 2300 UTC
Vento 12 kt de sudeste
Visibilidade 10 km ou mais
sem nuvens abaixo de 1500 metros e sem cumulonimbus
A partir de 16 às 1200 UTC
Vento 4 kt de sudeste
Visibilidade 10 km ou mais
sem nuvens abaixo de 1500 metros e sem cumulonimbus

TAF: YBAS 151729Z 1518/1618 30005KT CAVOK FM152300 14012KT CAVOK FM161200 14004KT CAVOK

Observações e previsões do tempo de mais de 4000 aeroportos (mensagens METAR e TAF).

As estações disponíveis são os pontos amarelos e vermelhos sobre o mapa.

Mova o rato sobre o mapa para ver o nome da estação.

Depois clique no ponto para visualizar as observações e previsões meteorológicas.

Para alterar o mapa : clique nos botões verdes com uma cruz preta para aumentar o zoom; no botão verde com uma pitada de zoom; ou nas setas verdes para mapas adjacentes.


METAR-TAF: